Time;durP1;ratioP1;P1;durP2;ratioP2;P2;SDS_P1;SDS_P2;PMS_P1;PMS_P2;Temp;Humidity;BMP_temperature;BMP_pressure;BME280_temperature;BME280_humidity;BME280_pressure;Samples;Min_cycle;Max_cycle;Signal;HPM_P1;HPM_P2
2023/03/07 00:01:38;;;;;;;10.37;7.27;;;6.40;99.90;;;;;;5097965;28;20262;-57
2023/03/07 00:04:05;;;;;;;10.90;7.33;;;6.30;99.90;;;;;;5098867;28;20231;-58
2023/03/07 00:06:32;;;;;;;11.23;7.73;;;6.30;99.90;;;;;;5097837;28;20228;-56
2023/03/07 00:09:01;;;;;;;12.57;7.77;;;6.30;99.90;;;;;;5096901;28;20604;-56
2023/03/07 00:11:30;;;;;;;10.07;6.83;;;6.20;99.90;;;;;;5098381;28;20211;-57
2023/03/07 00:13:56;;;;;;;10.30;7.37;;;6.20;99.90;;;;;;5096966;28;20224;-57
2023/03/07 00:16:25;;;;;;;11.67;7.60;;;6.20;99.90;;;;;;5096734;28;20664;-57
2023/03/07 00:18:52;;;;;;;10.57;7.63;;;6.20;99.90;;;;;;5096602;28;20204;-57
2023/03/07 00:21:20;;;;;;;9.77;7.40;;;6.20;99.90;;;;;;5097519;28;20552;-57
2023/03/07 00:23:48;;;;;;;10.23;7.90;;;6.20;99.90;;;;;;5096737;28;20255;-57
2023/03/07 00:26:17;;;;;;;10.27;7.50;;;6.30;99.90;;;;;;5096522;28;20252;-57
2023/03/07 00:28:47;;;;;;;9.83;7.27;;;6.20;99.90;;;;;;5096754;28;20253;-57
2023/03/07 00:31:14;;;;;;;8.97;7.40;;;6.20;99.90;;;;;;5096796;28;20295;-58
2023/03/07 00:33:41;;;;;;;10.70;7.53;;;6.20;99.90;;;;;;5096535;28;20208;-57
2023/03/07 00:36:12;;;;;;;9.37;7.10;;;6.20;99.90;;;;;;5095810;28;20200;-57
2023/03/07 00:38:40;;;;;;;9.43;7.10;;;6.20;99.90;;;;;;5096516;28;20204;-57
2023/03/07 00:41:10;;;;;;;10.97;7.03;;;6.20;99.90;;;;;;5096668;28;20212;-57
2023/03/07 00:43:37;;;;;;;10.40;7.43;;;6.30;99.90;;;;;;5096676;28;20212;-58
2023/03/07 00:46:06;;;;;;;12.47;7.67;;;6.30;99.90;;;;;;5095925;28;20220;-57
2023/03/07 00:48:34;;;;;;;10.43;7.30;;;6.30;99.90;;;;;;5096381;28;20209;-57
2023/03/07 00:51:01;;;;;;;9.87;7.23;;;6.20;99.90;;;;;;5095453;28;20261;-58
2023/03/07 00:53:28;;;;;;;11.10;7.57;;;6.20;99.90;;;;;;5095614;28;20205;-57
2023/03/07 00:55:57;;;;;;;10.93;7.33;;;6.20;99.90;;;;;;5095263;28;20750;-58
2023/03/07 00:58:24;;;;;;;9.13;7.23;;;6.30;99.90;;;;;;5095535;28;20291;-57
2023/03/07 01:00:51;;;;;;;10.83;7.20;;;6.40;99.90;;;;;;5095495;28;20212;-58
2023/03/07 01:03:20;;;;;;;9.63;6.70;;;6.40;99.90;;;;;;5095614;28;20397;-57
2023/03/07 01:05:47;;;;;;;9.50;7.13;;;6.40;99.90;;;;;;5095605;28;20200;-58
2023/03/07 01:08:15;;;;;;;10.50;7.03;;;6.40;99.90;;;;;;5095316;28;20204;-57
2023/03/07 01:10:42;;;;;;;10.60;6.63;;;6.40;99.90;;;;;;5095759;28;20211;-57
2023/03/07 01:13:09;;;;;;;9.70;7.10;;;6.50;99.90;;;;;;5095139;28;20877;-57
2023/03/07 01:15:36;;;;;;;9.67;7.20;;;6.60;99.90;;;;;;5094218;28;20306;-57
2023/03/07 01:18:04;;;;;;;10.77;7.53;;;6.60;99.90;;;;;;5095152;28;20647;-58
2023/03/07 01:20:32;;;;;;;10.97;7.33;;;6.60;99.90;;;;;;5095176;28;20199;-56
2023/03/07 01:22:59;;;;;;;11.43;7.73;;;6.70;99.90;;;;;;5094895;28;20200;-57
2023/03/07 01:25:26;;;;;;;11.20;7.63;;;6.60;99.90;;;;;;5093821;28;20310;-57
2023/03/07 01:27:55;;;;;;;9.57;7.03;;;6.70;99.90;;;;;;5094961;28;20343;-58
2023/03/07 01:30:22;;;;;;;10.00;7.30;;;6.70;99.90;;;;;;5094824;28;20622;-57
2023/03/07 01:32:55;;;;;;;9.90;7.23;;;6.70;99.90;;;;;;5094546;28;20215;-57
2023/03/07 01:35:22;;;;;;;9.53;6.93;;;6.70;99.90;;;;;;5094294;28;20228;-57
2023/03/07 01:37:51;;;;;;;9.87;6.77;;;6.60;99.90;;;;;;5094475;28;20279;-57
2023/03/07 01:40:19;;;;;;;9.87;7.27;;;6.50;99.90;;;;;;5094541;28;20239;-57
2023/03/07 01:42:46;;;;;;;9.23;6.80;;;6.50;99.90;;;;;;5094223;28;20200;-57
2023/03/07 01:45:50;;;;;;;9.80;7.20;;;6.50;99.90;;;;;;5093603;28;20224;-57
2023/03/07 01:48:17;;;;;;;9.87;6.97;;;6.40;99.90;;;;;;5094151;28;20287;-57
2023/03/07 01:50:44;;;;;;;10.20;7.33;;;6.50;99.90;;;;;;5093850;28;20216;-57
2023/03/07 01:53:14;;;;;;;9.57;7.27;;;6.40;99.90;;;;;;5093917;28;20208;-57
2023/03/07 01:55:41;;;;;;;9.60;6.80;;;6.50;99.90;;;;;;5093456;28;20243;-57
2023/03/07 01:58:11;;;;;;;8.93;7.07;;;6.50;99.90;;;;;;5093524;28;20207;-58
2023/03/07 02:00:40;;;;;;;10.33;7.00;;;6.50;99.90;;;;;;5093199;28;20208;-58
2023/03/07 02:03:12;;;;;;;10.00;6.60;;;6.40;99.90;;;;;;5093177;28;20215;-57
2023/03/07 02:05:43;;;;;;;10.60;6.80;;;6.50;99.90;;;;;;5093096;28;20644;-57
2023/03/07 02:08:12;;;;;;;9.60;7.10;;;6.50;99.90;;;;;;5093258;28;20243;-57
2023/03/07 02:10:41;;;;;;;9.87;6.97;;;6.60;99.90;;;;;;5093287;28;20303;-57
2023/03/07 02:13:08;;;;;;;10.30;7.17;;;6.50;99.90;;;;;;5093220;28;20226;-57
2023/03/07 02:15:35;;;;;;;9.30;6.37;;;6.50;99.90;;;;;;5092793;28;20255;-57
2023/03/07 02:18:04;;;;;;;11.20;6.80;;;6.50;99.90;;;;;;5093055;28;20272;-57
2023/03/07 02:20:37;;;;;;;11.40;6.87;;;6.50;99.90;;;;;;5093061;28;20208;-57
2023/03/07 02:23:12;;;;;;;10.27;7.27;;;6.50;99.90;;;;;;5092997;28;20243;-57
2023/03/07 02:25:44;;;;;;;11.40;7.30;;;6.50;99.90;;;;;;5092764;28;20293;-57
2023/03/07 02:28:17;;;;;;;9.80;6.80;;;6.50;99.90;;;;;;5092670;28;20258;-57
2023/03/07 02:30:54;;;;;;;9.30;6.47;;;6.40;99.90;;;;;;5093028;28;20216;-57
2023/03/07 02:33:23;;;;;;;10.03;6.90;;;6.40;99.90;;;;;;5092545;28;20207;-57
2023/03/07 02:35:54;;;;;;;10.63;6.33;;;6.30;99.90;;;;;;5092742;28;20208;-57
2023/03/07 02:38:22;;;;;;;9.53;6.63;;;6.30;99.90;;;;;;5096617;28;20231;-57
2023/03/07 02:40:50;;;;;;;10.47;6.97;;;6.40;99.90;;;;;;5096623;28;20200;-59
2023/03/07 02:43:19;;;;;;;9.97;6.87;;;6.40;99.90;;;;;;5096668;28;20201;-58
2023/03/07 02:45:46;;;;;;;9.20;6.60;;;6.50;99.90;;;;;;5095845;28;20228;-58
2023/03/07 02:48:14;;;;;;;8.70;6.63;;;6.50;99.90;;;;;;5096227;28;20256;-58
2023/03/07 02:50:41;;;;;;;9.43;6.60;;;6.50;99.90;;;;;;5096386;28;20212;-57
2023/03/07 02:53:07;;;;;;;11.17;6.73;;;6.60;99.90;;;;;;5096345;28;20239;-58
2023/03/07 02:55:34;;;;;;;11.40;7.63;;;6.60;99.90;;;;;;5096703;28;20236;-58
2023/03/07 02:58:01;;;;;;;9.50;7.13;;;6.40;99.90;;;;;;5096776;28;20249;-57
2023/03/07 03:00:29;;;;;;;12.00;7.50;;;6.30;99.90;;;;;;5096260;28;20211;-58
2023/03/07 03:02:56;;;;;;;9.97;7.03;;;6.30;99.90;;;;;;5096312;28;20305;-57
2023/03/07 03:05:23;;;;;;;9.67;7.43;;;6.30;99.90;;;;;;5096301;28;20377;-58
2023/03/07 03:07:50;;;;;;;9.37;6.93;;;6.40;99.90;;;;;;5096286;28;20235;-57
2023/03/07 03:10:17;;;;;;;9.33;6.73;;;6.30;99.90;;;;;;5096929;28;20230;-58
2023/03/07 03:12:44;;;;;;;10.17;7.23;;;6.40;99.90;;;;;;5096967;28;20210;-57
2023/03/07 03:15:12;;;;;;;8.57;6.83;;;6.40;99.90;;;;;;5095685;28;20220;-58
2023/03/07 03:17:41;;;;;;;9.87;7.57;;;6.30;99.90;;;;;;5096107;28;20200;-58
2023/03/07 03:20:10;;;;;;;10.47;7.53;;;6.30;99.90;;;;;;5095885;28;20253;-58
2023/03/07 03:22:37;;;;;;;10.73;6.87;;;6.30;99.90;;;;;;5096154;28;20223;-58
2023/03/07 03:25:06;;;;;;;10.20;7.07;;;6.30;99.90;;;;;;5095641;28;20217;-58
2023/03/07 03:27:34;;;;;;;10.30;7.20;;;6.30;99.90;;;;;;5095584;28;20216;-57
2023/03/07 03:30:01;;;;;;;8.83;6.40;;;6.30;99.90;;;;;;5095514;28;20204;-57
2023/03/07 03:32:27;;;;;;;9.77;7.30;;;6.30;99.90;;;;;;5095386;28;20200;-57
2023/03/07 03:34:56;;;;;;;10.23;7.13;;;6.30;99.90;;;;;;5095167;28;20228;-57
2023/03/07 03:37:23;;;;;;;9.87;6.93;;;6.40;99.90;;;;;;5095187;28;20207;-58
2023/03/07 03:39:52;;;;;;;8.57;6.90;;;6.50;99.90;;;;;;5095169;28;20210;-58
2023/03/07 03:42:19;;;;;;;13.13;6.83;;;6.60;99.90;;;;;;5095683;28;20212;-58
2023/03/07 03:44:46;;;;;;;8.80;6.60;;;6.60;99.90;;;;;;5095884;28;20293;-58
2023/03/07 03:47:13;;;;;;;10.60;7.23;;;6.60;99.90;;;;;;5095243;28;20216;-57
2023/03/07 03:49:39;;;;;;;8.60;6.53;;;6.70;99.90;;;;;;5095067;28;20265;-57
2023/03/07 03:52:08;;;;;;;9.87;6.90;;;6.70;99.90;;;;;;5095776;28;20539;-57
2023/03/07 03:54:35;;;;;;;10.10;7.10;;;6.60;99.90;;;;;;5095272;28;20235;-57
2023/03/07 03:57:02;;;;;;;9.23;6.87;;;6.70;99.90;;;;;;5095591;28;20214;-57
2023/03/07 03:59:30;;;;;;;9.27;6.73;;;6.60;99.90;;;;;;5096289;28;20576;-57
2023/03/07 04:01:57;;;;;;;9.33;7.23;;;6.70;99.90;;;;;;5095226;28;20200;-57
2023/03/07 04:04:24;;;;;;;9.70;7.33;;;6.70;99.90;;;;;;5095363;28;20251;-57
2023/03/07 04:06:51;;;;;;;9.93;7.10;;;6.60;99.90;;;;;;5095576;28;20200;-57
2023/03/07 04:09:19;;;;;;;16.13;9.17;;;6.50;99.90;;;;;;5095616;28;20200;-57
2023/03/07 04:11:46;;;;;;;11.30;7.70;;;6.50;99.90;;;;;;5095290;28;20261;-57
2023/03/07 04:14:13;;;;;;;10.23;7.53;;;6.60;99.90;;;;;;5094840;28;20629;-57
2023/03/07 04:16:40;;;;;;;12.27;6.90;;;6.60;99.90;;;;;;5094650;28;20679;-57
2023/03/07 04:19:11;;;;;;;9.97;7.27;;;6.70;99.90;;;;;;5095385;28;20291;-57
2023/03/07 04:21:38;;;;;;;12.23;7.50;;;6.80;99.90;;;;;;5094734;28;20204;-57
2023/03/07 04:24:06;;;;;;;10.03;7.97;;;6.70;99.90;;;;;;5094426;28;20224;-57
2023/03/07 04:26:34;;;;;;;10.83;7.33;;;6.70;99.90;;;;;;5094310;28;20734;-57
2023/03/07 04:29:03;;;;;;;11.67;6.93;;;6.70;99.90;;;;;;5094645;28;20558;-57
2023/03/07 04:31:30;;;;;;;13.73;9.80;;;6.70;99.90;;;;;;5094613;28;20211;-57
2023/03/07 04:33:57;;;;;;;8.67;7.00;;;6.80;99.90;;;;;;5094590;28;20266;-57
2023/03/07 04:36:24;;;;;;;10.67;8.00;;;6.70;99.90;;;;;;5093917;28;20237;-57
2023/03/07 04:38:51;;;;;;;15.13;10.03;;;6.70;99.90;;;;;;5094846;28;20207;-58
2023/03/07 04:41:21;;;;;;;11.23;7.77;;;6.80;99.90;;;;;;5094189;28;20287;-57
2023/03/07 04:43:50;;;;;;;11.37;7.73;;;6.70;99.90;;;;;;5093994;28;20777;-57
2023/03/07 04:46:18;;;;;;;10.40;7.17;;;6.80;99.90;;;;;;5094821;28;20234;-58
2023/03/07 04:48:46;;;;;;;11.57;7.60;;;6.80;99.90;;;;;;5095487;28;20277;-57
2023/03/07 04:51:13;;;;;;;9.90;7.30;;;6.70;99.90;;;;;;5094866;28;20722;-57
2023/03/07 04:53:40;;;;;;;12.13;7.90;;;6.70;99.90;;;;;;5095943;28;20228;-57
2023/03/07 04:56:09;;;;;;;10.40;7.83;;;6.80;99.90;;;;;;5096151;28;20212;-57
2023/03/07 04:58:36;;;;;;;13.47;7.90;;;6.70;99.90;;;;;;5095436;28;20231;-57
2023/03/07 05:01:05;;;;;;;13.20;8.83;;;6.80;99.90;;;;;;5094203;28;20205;-57
2023/03/07 05:03:33;;;;;;;10.13;7.43;;;6.80;99.90;;;;;;5094637;28;20239;-57
2023/03/07 05:06:02;;;;;;;14.23;8.07;;;6.90;99.90;;;;;;5094574;28;20210;-57
2023/03/07 05:08:29;;;;;;;12.57;7.63;;;6.90;99.90;;;;;;5094186;28;20224;-57
2023/03/07 05:10:56;;;;;;;12.80;7.90;;;6.80;99.90;;;;;;5094095;28;20200;-57
2023/03/07 05:13:24;;;;;;;11.33;7.13;;;6.80;99.90;;;;;;5094596;28;20200;-57
2023/03/07 05:15:52;;;;;;;13.73;7.73;;;6.80;99.90;;;;;;5094947;28;20205;-57
2023/03/07 05:18:21;;;;;;;10.30;7.87;;;6.80;99.90;;;;;;5097127;28;20208;-57
2023/03/07 05:20:48;;;;;;;11.07;8.07;;;6.80;99.90;;;;;;5094615;28;20292;-57
2023/03/07 05:23:15;;;;;;;11.73;8.50;;;6.80;99.90;;;;;;5094265;28;20759;-58
2023/03/07 05:25:42;;;;;;;11.87;7.93;;;6.70;99.90;;;;;;5094612;28;20232;-58
2023/03/07 05:28:09;;;;;;;16.40;10.90;;;6.70;99.90;;;;;;5094807;28;20220;-57
2023/03/07 05:30:36;;;;;;;13.53;9.13;;;6.70;99.90;;;;;;5094936;28;20222;-58
2023/03/07 05:33:03;;;;;;;11.83;8.33;;;6.70;99.90;;;;;;5094858;28;20746;-58
2023/03/07 05:35:31;;;;;;;10.83;8.03;;;6.70;99.90;;;;;;5094547;28;20311;-58
2023/03/07 05:37:58;;;;;;;11.20;8.00;;;6.70;99.90;;;;;;5095771;28;20204;-58
2023/03/07 05:40:25;;;;;;;12.33;8.27;;;6.70;99.90;;;;;;5095465;28;20612;-58
2023/03/07 05:42:52;;;;;;;11.90;7.53;;;6.70;99.90;;;;;;5095438;28;20295;-57
2023/03/07 05:45:20;;;;;;;12.87;8.20;;;6.70;99.90;;;;;;5095036;28;20647;-58
2023/03/07 05:47:47;;;;;;;10.50;7.90;;;6.70;99.90;;;;;;5098240;28;20249;-57
2023/03/07 05:50:13;;;;;;;11.03;8.00;;;6.70;99.90;;;;;;5095879;28;20236;-57
2023/03/07 05:52:42;;;;;;;10.47;7.37;;;6.90;99.90;;;;;;5095405;28;20227;-57
2023/03/07 05:55:09;;;;;;;13.27;7.93;;;6.90;99.90;;;;;;5095517;28;20228;-57
2023/03/07 05:57:36;;;;;;;14.70;9.27;;;7.00;99.90;;;;;;5096649;28;20206;-57
2023/03/07 06:00:06;;;;;;;10.10;7.10;;;6.80;99.90;;;;;;5096890;28;20667;-57
2023/03/07 06:02:33;;;;;;;11.70;8.00;;;6.70;99.90;;;;;;5096394;28;20254;-58
2023/03/07 06:05:00;;;;;;;9.57;7.80;;;6.80;99.90;;;;;;5096877;28;20235;-58
2023/03/07 06:07:27;;;;;;;15.60;9.13;;;6.80;99.90;;;;;;5097115;28;20212;-58
2023/03/07 06:09:55;;;;;;;10.87;7.90;;;6.90;99.90;;;;;;5096598;28;20204;-58
2023/03/07 06:12:21;;;;;;;12.03;8.00;;;6.90;99.90;;;;;;5098055;28;20691;-57
2023/03/07 06:14:48;;;;;;;14.23;8.07;;;6.90;99.90;;;;;;5100424;28;20235;-59
2023/03/07 06:17:15;;;;;;;12.53;8.00;;;6.80;99.90;;;;;;5100008;28;20204;-58
2023/03/07 06:19:42;;;;;;;11.23;8.10;;;6.80;99.90;;;;;;5098876;28;20200;-58
2023/03/07 06:22:09;;;;;;;12.33;8.10;;;6.90;99.90;;;;;;5099257;28;20205;-58
2023/03/07 06:24:36;;;;;;;11.07;7.93;;;6.90;99.90;;;;;;5098117;28;20307;-58
2023/03/07 06:27:04;;;;;;;14.43;7.60;;;7.00;99.90;;;;;;5097992;28;20200;-58
2023/03/07 06:29:31;;;;;;;10.93;7.07;;;7.00;99.90;;;;;;5097561;28;20216;-58
2023/03/07 06:31:58;;;;;;;10.43;7.80;;;7.00;99.90;;;;;;5098548;28;20224;-58
2023/03/07 06:34:25;;;;;;;11.00;7.90;;;7.00;99.90;;;;;;5097944;28;20319;-59
2023/03/07 06:36:52;;;;;;;10.17;7.10;;;7.10;99.90;;;;;;5097760;28;20208;-57
2023/03/07 06:39:20;;;;;;;12.83;7.50;;;7.10;99.90;;;;;;5097992;28;20208;-58
2023/03/07 06:41:47;;;;;;;11.87;6.73;;;7.10;99.90;;;;;;5097631;28;20236;-59
2023/03/07 06:44:16;;;;;;;9.17;7.17;;;7.10;99.90;;;;;;5097588;28;20232;-58
2023/03/07 06:46:43;;;;;;;10.53;7.37;;;7.00;99.90;;;;;;5098057;28;20276;-58
2023/03/07 06:49:10;;;;;;;9.97;7.40;;;7.00;99.90;;;;;;5096961;28;20227;-58
2023/03/07 06:51:37;;;;;;;10.97;7.67;;;7.00;99.90;;;;;;5097191;28;20204;-59
2023/03/07 06:54:04;;;;;;;11.57;7.63;;;7.00;99.90;;;;;;5097262;28;20285;-58
2023/03/07 06:56:33;;;;;;;9.80;7.17;;;7.00;99.90;;;;;;5097549;28;20204;-58
2023/03/07 06:59:00;;;;;;;9.20;7.07;;;7.00;99.90;;;;;;5096912;28;20205;-58
2023/03/07 07:01:28;;;;;;;14.23;8.00;;;7.00;99.90;;;;;;5097309;28;20578;-58
2023/03/07 07:03:55;;;;;;;10.37;7.20;;;7.10;99.90;;;;;;5096932;28;20231;-58
2023/03/07 07:06:22;;;;;;;9.53;7.27;;;7.20;99.90;;;;;;5097116;28;20240;-58
2023/03/07 07:08:49;;;;;;;8.80;6.67;;;7.30;99.90;;;;;;5096958;28;20235;-58
2023/03/07 07:11:16;;;;;;;10.87;7.70;;;7.20;99.90;;;;;;5097291;28;20200;-58
2023/03/07 07:13:44;;;;;;;11.00;7.57;;;7.40;99.90;;;;;;5096821;28;20239;-58
2023/03/07 07:16:12;;;;;;;11.80;7.20;;;7.40;99.90;;;;;;5096340;28;20219;-58
2023/03/07 07:18:40;;;;;;;12.60;7.10;;;7.40;99.90;;;;;;5098380;28;20668;-58
2023/03/07 07:21:07;;;;;;;9.17;6.93;;;7.50;99.90;;;;;;5096229;28;20212;-58
2023/03/07 07:23:34;;;;;;;10.93;7.07;;;7.50;99.90;;;;;;5095380;28;20200;-59
2023/03/07 07:26:01;;;;;;;10.53;7.37;;;7.50;99.90;;;;;;5095806;28;20200;-58
2023/03/07 07:28:28;;;;;;;12.17;6.80;;;7.50;99.90;;;;;;5096327;28;20224;-58
2023/03/07 07:30:55;;;;;;;11.40;7.30;;;7.50;99.90;;;;;;5096330;28;20242;-58
2023/03/07 07:33:22;;;;;;;10.03;7.03;;;7.50;99.90;;;;;;5096080;28;20215;-58
2023/03/07 07:35:50;;;;;;;8.37;6.33;;;7.50;99.90;;;;;;5096008;28;20214;-58
2023/03/07 07:38:17;;;;;;;10.53;7.10;;;7.50;99.90;;;;;;5096187;28;20211;-58
2023/03/07 07:40:44;;;;;;;9.03;7.03;;;7.60;99.90;;;;;;5095898;28;20232;-58
2023/03/07 07:43:14;;;;;;;12.57;7.17;;;7.70;99.90;;;;;;5096118;28;20212;-58
2023/03/07 07:45:41;;;;;;;10.87;6.70;;;7.80;99.90;;;;;;5095766;28;20676;-59
2023/03/07 07:48:08;;;;;;;9.83;7.30;;;8.10;99.90;;;;;;5096483;28;20212;-59
2023/03/07 07:50:35;;;;;;;8.93;6.37;;;8.30;99.90;;;;;;5096112;28;20212;-59
2023/03/07 07:53:03;;;;;;;17.47;11.90;;;8.40;99.90;;;;;;5095613;28;20207;-58
2023/03/07 07:55:30;;;;;;;12.10;7.60;;;8.40;99.90;;;;;;5095712;28;20232;-58
2023/03/07 07:57:57;;;;;;;12.70;8.13;;;8.60;99.90;;;;;;5095942;28;20204;-59
2023/03/07 08:00:24;;;;;;;9.27;6.23;;;8.70;99.90;;;;;;5096271;28;20235;-58
2023/03/07 08:02:51;;;;;;;6.83;5.73;;;8.80;99.70;;;;;;5095879;28;20205;-58
2023/03/07 08:05:20;;;;;;;10.70;6.67;;;8.80;99.80;;;;;;5095226;28;20274;-58
2023/03/07 08:07:47;;;;;;;10.07;6.83;;;8.90;99.60;;;;;;5096056;28;20214;-58
2023/03/07 08:10:16;;;;;;;8.53;6.13;;;9.00;99.60;;;;;;5095534;28;20224;-58
2023/03/07 08:12:43;;;;;;;9.07;6.27;;;9.10;99.50;;;;;;5095425;28;20211;-58
2023/03/07 08:15:11;;;;;;;7.97;6.50;;;9.20;99.30;;;;;;5095842;28;20228;-58
2023/03/07 08:17:37;;;;;;;10.57;7.07;;;9.30;99.10;;;;;;5095619;28;20747;-57
2023/03/07 08:20:08;;;;;;;10.23;6.63;;;9.50;98.90;;;;;;5095528;28;20200;-58
2023/03/07 08:22:35;;;;;;;10.43;5.97;;;9.70;98.40;;;;;;5095430;28;20212;-58
2023/03/07 08:25:03;;;;;;;12.50;8.77;;;9.80;98.20;;;;;;5095393;28;20600;-58
2023/03/07 08:27:31;;;;;;;14.47;10.07;;;9.90;98.10;;;;;;5095304;28;20257;-59
2023/03/07 08:29:58;;;;;;;9.30;6.40;;;10.00;97.80;;;;;;5094605;28;20231;-59
2023/03/07 08:32:25;;;;;;;9.50;6.20;;;10.10;97.20;;;;;;5095140;28;20671;-58
2023/03/07 08:34:52;;;;;;;7.20;5.93;;;10.30;97.00;;;;;;5094958;28;20228;-58
2023/03/07 08:37:19;;;;;;;8.93;5.93;;;10.40;96.80;;;;;;5094858;28;20222;-59
2023/03/07 08:39:46;;;;;;;11.03;6.10;;;10.50;96.50;;;;;;5095348;28;20556;-59
2023/03/07 08:42:12;;;;;;;9.23;6.33;;;10.70;96.40;;;;;;5094900;28;20204;-58
2023/03/07 08:44:40;;;;;;;9.60;6.50;;;10.90;96.00;;;;;;5095007;28;20224;-58
2023/03/07 08:47:07;;;;;;;6.97;6.07;;;11.10;95.50;;;;;;5095012;28;20207;-59
2023/03/07 08:49:34;;;;;;;8.43;6.20;;;11.10;95.70;;;;;;5094589;28;20307;-58
2023/03/07 08:52:01;;;;;;;8.83;6.13;;;11.20;95.40;;;;;;5095114;28;20230;-59
2023/03/07 08:54:28;;;;;;;7.33;5.73;;;11.40;95.40;;;;;;5095301;28;20243;-58
2023/03/07 08:56:55;;;;;;;10.93;6.53;;;11.70;95.00;;;;;;5095406;28;20220;-58
2023/03/07 08:59:22;;;;;;;8.43;6.20;;;11.90;94.50;;;;;;5095402;28;20201;-59
2023/03/07 09:01:50;;;;;;;9.37;6.57;;;12.10;94.10;;;;;;5095647;28;20200;-58
2023/03/07 09:04:17;;;;;;;8.57;6.27;;;12.00;93.90;;;;;;5095081;28;20671;-59
2023/03/07 09:06:44;;;;;;;7.57;6.17;;;12.10;93.80;;;;;;5095120;28;20210;-59
2023/03/07 09:09:11;;;;;;;11.27;6.37;;;12.20;93.80;;;;;;5094439;28;20228;-58
2023/03/07 09:11:37;;;;;;;9.83;7.00;;;12.40;93.70;;;;;;5094849;28;20210;-59
2023/03/07 09:14:04;;;;;;;9.90;6.17;;;12.70;93.10;;;;;;5093986;28;20228;-58
2023/03/07 09:16:31;;;;;;;13.10;6.10;;;12.90;92.90;;;;;;5092396;28;20200;-57
2023/03/07 09:18:59;;;;;;;11.57;6.27;;;13.10;92.20;;;;;;5092666;28;20235;-58
2023/03/07 09:21:26;;;;;;;10.87;5.97;;;13.00;91.70;;;;;;5092403;28;20219;-58
2023/03/07 09:23:53;;;;;;;15.90;6.40;;;12.80;91.80;;;;;;5092745;28;20239;-58
2023/03/07 09:26:20;;;;;;;13.13;5.67;;;12.60;91.90;;;;;;5092345;28;20203;-58
2023/03/07 09:28:46;;;;;;;10.30;5.80;;;12.60;91.30;;;;;;5092420;28;20231;-58
2023/03/07 09:31:14;;;;;;;7.40;5.70;;;12.40;91.30;;;;;;5092490;28;20215;-57
2023/03/07 09:33:42;;;;;;;11.10;6.20;;;12.40;91.70;;;;;;5092130;28;20213;-57
2023/03/07 09:36:13;;;;;;;7.30;5.60;;;12.30;91.60;;;;;;5092157;28;20208;-58
2023/03/07 09:38:40;;;;;;;10.00;6.03;;;12.40;91.80;;;;;;5092416;28;20204;-58
2023/03/07 09:41:19;;;;;;;9.27;6.17;;;12.60;91.20;;;;;;5092362;28;20204;-56
2023/03/07 09:43:51;;;;;;;10.00;7.10;;;12.80;90.80;;;;;;5092371;28;20314;-58
2023/03/07 09:46:32;;;;;;;7.07;5.50;;;13.00;90.60;;;;;;5092674;28;20204;-56
2023/03/07 09:49:17;;;;;;;10.83;6.00;;;13.20;90.40;;;;;;5096749;28;20223;-57
2023/03/07 09:51:48;;;;;;;6.70;5.03;;;13.20;89.70;;;;;;5096412;28;20644;-56
2023/03/07 09:54:18;;;;;;;6.57;4.60;;;13.20;87.80;;;;;;5096468;28;20242;-56
2023/03/07 09:56:49;;;;;;;6.33;4.63;;;13.00;86.60;;;;;;5096372;28;20215;-56
2023/03/07 09:59:21;;;;;;;9.17;4.63;;;12.80;86.00;;;;;;5096365;28;20629;-58
2023/03/07 10:01:51;;;;;;;5.80;4.43;;;12.50;85.50;;;;;;5096392;28;20207;-58
2023/03/07 10:04:26;;;;;;;6.40;4.53;;;12.40;86.00;;;;;;5096346;28;20247;-57
2023/03/07 10:06:57;;;;;;;7.60;4.70;;;12.30;86.40;;;;;;5096133;28;20218;-56
2023/03/07 10:09:25;;;;;;;5.67;4.57;;;12.10;86.30;;;;;;5095881;28;20247;-57
2023/03/07 10:12:08;;;;;;;10.60;4.60;;;11.90;85.60;;;;;;5096144;28;20238;-56
2023/03/07 10:14:49;;;;;;;6.60;4.37;;;11.70;86.60;;;;;;5095839;28;20224;-56
2023/03/07 10:17:26;;;;;;;7.17;5.00;;;11.70;86.60;;;;;;5095766;28;20208;-56
2023/03/07 10:19:56;;;;;;;10.07;4.73;;;11.80;85.40;;;;;;5095948;28;20200;-57
2023/03/07 10:22:31;;;;;;;8.80;4.00;;;11.80;85.70;;;;;;5095790;28;20573;-58
2023/03/07 10:25:11;;;;;;;5.13;3.80;;;11.80;84.80;;;;;;5095814;28;20228;-58
2023/03/07 10:27:38;;;;;;;6.50;4.13;;;11.80;84.70;;;;;;5096003;28;20638;-58
2023/03/07 10:30:14;;;;;;;7.10;4.27;;;11.70;83.30;;;;;;5095509;28;20348;-58
2023/03/07 10:32:44;;;;;;;7.40;4.33;;;11.60;83.60;;;;;;5095587;28;20579;-58
2023/03/07 10:35:19;;;;;;;4.87;3.93;;;11.60;84.20;;;;;;5095548;28;20239;-57
2023/03/07 10:37:50;;;;;;;5.93;4.10;;;11.50;84.90;;;;;;5095290;28;20208;-56
2023/03/07 10:40:28;;;;;;;6.93;4.00;;;11.20;83.30;;;;;;5095307;28;20232;-58
2023/03/07 10:42:56;;;;;;;7.53;5.07;;;11.00;84.60;;;;;;5094995;28;20580;-58
2023/03/07 10:45:32;;;;;;;22.87;14.57;;;10.80;85.40;;;;;;5095392;28;20227;-58
2023/03/07 10:48:04;;;;;;;10.37;4.63;;;10.70;86.30;;;;;;5096066;28;20211;-57
2023/03/07 10:50:40;;;;;;;6.57;5.03;;;10.60;87.00;;;;;;5095562;28;20672;-58
2023/03/07 10:53:22;;;;;;;10.10;7.37;;;10.60;87.70;;;;;;5096149;28;20210;-58
2023/03/07 10:55:49;;;;;;;4.70;3.97;;;10.50;87.70;;;;;;5095498;28;20261;-58
2023/03/07 10:58:22;;;;;;;16.17;4.93;;;10.40;87.60;;;;;;5095572;28;20204;-58
2023/03/07 11:01:15;;;;;;;7.37;4.63;;;10.40;87.60;;;;;;5095441;28;20212;-57
2023/03/07 11:03:46;;;;;;;5.17;4.23;;;10.30;88.40;;;;;;5095472;28;20232;-59
2023/03/07 11:06:34;;;;;;;6.80;4.10;;;10.30;89.00;;;;;;5094980;28;20204;-56
2023/03/07 11:09:25;;;;;;;6.97;4.30;;;10.10;88.70;;;;;;5095126;28;20488;-57
2023/03/07 11:11:55;;;;;;;9.63;4.93;;;10.00;89.10;;;;;;5092076;28;20208;-57
2023/03/07 11:14:22;;;;;;;8.77;4.80;;;9.80;89.80;;;;;;5095594;28;20601;-57
2023/03/07 11:16:51;;;;;;;7.70;4.70;;;9.70;90.00;;;;;;5094710;28;20215;-58
2023/03/07 11:19:38;;;;;;;13.73;6.70;;;9.70;90.20;;;;;;5094968;28;20200;-57
2023/03/07 11:22:17;;;;;;;20.40;9.63;;;9.60;90.20;;;;;;5094762;28;20587;-60
2023/03/07 11:24:52;;;;;;;9.23;4.77;;;9.50;90.10;;;;;;5095224;28;20239;-58
2023/03/07 11:27:24;;;;;;;7.43;4.67;;;9.50;90.50;;;;;;5094766;28;20230;-58
2023/03/07 11:30:19;;;;;;;7.07;4.70;;;9.50;90.40;;;;;;5094385;28;20230;-58
2023/03/07 11:32:59;;;;;;;7.50;4.50;;;9.70;90.30;;;;;;5093165;28;20205;-58
2023/03/07 11:35:40;;;;;;;8.90;4.90;;;9.60;90.20;;;;;;5094716;28;20226;-58
2023/03/07 11:38:13;;;;;;;7.53;5.13;;;9.60;90.00;;;;;;5094677;28;20683;-58
2023/03/07 11:40:49;;;;;;;10.57;5.70;;;9.70;89.80;;;;;;5094355;28;20228;-58
2023/03/07 11:43:20;;;;;;;6.90;4.53;;;9.80;89.90;;;;;;5094123;28;20597;-57
2023/03/07 11:45:58;;;;;;;7.60;5.33;;;9.80;90.10;;;;;;5094102;28;20250;-57
2023/03/07 11:48:42;;;;;;;6.03;4.63;;;9.90;89.80;;;;;;5094808;28;20200;-57
2023/03/07 11:51:27;;;;;;;8.50;5.38;;;9.90;89.90;;;;;;5084922;28;21146;-57
2023/03/07 11:54:03;;;;;;;11.13;5.83;;;10.00;89.00;;;;;;5072988;28;20233;-59
2023/03/07 11:56:35;;;;;;;8.53;5.03;;;10.10;88.00;;;;;;5072303;28;20683;-58
2023/03/07 11:59:39;;;;;;;9.30;5.00;;;10.10;88.10;;;;;;5073047;28;20213;-59
2023/03/07 12:02:29;;;;;;;13.30;4.97;;;10.10;88.20;;;;;;5072690;28;20209;-60
2023/03/07 12:05:11;;;;;;;7.70;5.03;;;10.10;88.10;;;;;;5072437;28;20220;-59
2023/03/07 12:08:14;;;;;;;7.23;4.90;;;10.10;87.70;;;;;;5072601;28;20208;-59
2023/03/07 12:10:51;;;;;;;5.70;4.40;;;10.00;87.30;;;;;;5066612;28;20592;-59
2023/03/07 12:13:32;;;;;;;10.23;5.40;;;9.90;88.30;;;;;;5072858;28;20209;-59
2023/03/07 12:16:09;;;;;;;9.07;5.67;;;10.00;87.20;;;;;;5072335;28;20200;-60
2023/03/07 12:19:09;;;;;;;8.00;4.80;;;10.20;86.70;;;;;;5072431;28;20579;-60
2023/03/07 12:22:15;;;;;;;10.87;5.80;;;10.40;86.30;;;;;;5072487;28;20205;-58
2023/03/07 12:24:49;;;;;;;7.97;4.80;;;10.60;85.20;;;;;;5070733;28;20227;-62
2023/03/07 12:27:23;;;;;;;6.53;4.63;;;10.80;84.90;;;;;;5072903;28;20258;-59
2023/03/07 12:29:57;;;;;;;6.57;4.70;;;11.10;84.40;;;;;;5073112;28;20230;-62
2023/03/07 12:32:25;;;;;;;6.43;4.77;;;11.30;84.10;;;;;;5074194;28;20498;-59
2023/03/07 12:34:59;;;;;;;10.47;4.87;;;11.60;84.00;;;;;;5073275;28;20296;-56
2023/03/07 12:37:30;;;;;;;9.10;4.50;;;11.70;81.70;;;;;;5072732;28;20205;-55
2023/03/07 12:40:00;;;;;;;7.63;4.50;;;11.90;81.50;;;;;;5073030;28;20201;-55
2023/03/07 12:42:35;;;;;;;8.13;4.47;;;12.10;80.10;;;;;;5072804;28;20292;-55
2023/03/07 12:45:09;;;;;;;8.20;4.60;;;12.20;79.90;;;;;;5073011;28;20231;-57
2023/03/07 12:47:50;;;;;;;9.63;4.60;;;12.30;79.70;;;;;;5072591;28;20209;-55
2023/03/07 12:50:23;;;;;;;7.13;4.27;;;12.40;79.70;;;;;;5072839;28;20606;-55
2023/03/07 12:52:54;;;;;;;10.47;4.63;;;12.50;78.80;;;;;;5073082;28;20574;-57
2023/03/07 12:55:25;;;;;;;7.37;4.27;;;12.60;78.60;;;;;;5072562;28;20260;-55
2023/03/07 12:58:01;;;;;;;6.53;4.57;;;12.70;78.00;;;;;;5072413;28;20224;-55
2023/03/07 13:00:32;;;;;;;5.63;4.30;;;12.70;77.50;;;;;;5072792;28;20609;-57
2023/03/07 13:03:01;;;;;;;9.73;4.87;;;12.40;77.50;;;;;;5072882;28;20216;-55